createdAt,value
2023-05-16T00:00:38.344Z,97086.03
2023-05-16T00:03:08.147Z,97006.28
2023-05-16T00:05:37.135Z,97081.44
2023-05-16T00:08:05.807Z,97015.88
2023-05-16T00:10:34.068Z,97052.81
2023-05-16T00:13:03.934Z,97043.06
2023-05-16T00:15:32.599Z,97039.97
2023-05-16T00:18:01.324Z,97070.81
2023-05-16T00:20:30.660Z,97061.91
2023-05-16T00:23:01.300Z,97056.41
2023-05-16T00:25:30.122Z,97050.59
2023-05-16T00:27:58.654Z,97048.59
2023-05-16T00:30:28.752Z,97016.66
2023-05-16T00:32:57.562Z,96981.34
2023-05-16T00:35:26.017Z,97000.00
2023-05-16T00:37:54.630Z,96998.09
2023-05-16T00:40:22.856Z,97031.41
2023-05-16T00:42:51.150Z,96979.97
2023-05-16T00:45:19.624Z,97020.16
2023-05-16T00:47:49.772Z,97020.16
2023-05-16T00:50:18.607Z,97006.91
2023-05-16T00:52:47.902Z,96887.44
2023-05-16T00:55:16.386Z,96919.81
2023-05-16T00:57:45.774Z,96959.06
2023-05-16T01:00:15.798Z,96836.50
2023-05-16T01:02:45.075Z,96976.47
2023-05-16T01:05:15.227Z,96969.16
2023-05-16T01:07:44.775Z,96971.63
2023-05-16T01:10:14.387Z,96965.56
2023-05-16T01:12:50.537Z,97004.97
2023-05-16T01:15:24.820Z,96969.13
2023-05-16T01:18:02.371Z,96983.38
2023-05-16T01:20:38.920Z,96518.03
2023-05-16T01:23:21.082Z,97049.59
2023-05-16T01:26:10.222Z,97013.66
2023-05-16T01:28:39.843Z,96955.19
2023-05-16T01:31:08.365Z,97019.31
2023-05-16T01:33:36.611Z,97010.56
2023-05-16T01:36:14.590Z,96918.31
2023-05-16T01:38:52.093Z,96984.53
2023-05-16T01:41:29.477Z,96992.53
2023-05-16T01:44:01.912Z,96957.59
2023-05-16T01:46:35.895Z,96924.31
2023-05-16T01:49:18.252Z,96933.44
2023-05-16T01:51:52.900Z,96964.56
2023-05-16T01:54:23.319Z,96960.63
2023-05-16T01:56:55.438Z,96958.28
2023-05-16T01:59:25.788Z,96947.13
2023-05-16T02:01:55.570Z,96815.22
2023-05-16T02:04:24.691Z,96857.25
2023-05-16T02:06:53.759Z,96841.72
2023-05-16T02:09:22.109Z,96869.94
2023-05-16T02:11:50.380Z,96936.72
2023-05-16T02:14:20.238Z,96936.84
2023-05-16T02:16:49.538Z,96868.28
2023-05-16T02:19:17.916Z,96897.31
2023-05-16T02:21:46.205Z,96925.94
2023-05-16T02:24:14.567Z,96464.06
2023-05-16T02:26:42.925Z,96912.19
2023-05-16T02:29:11.307Z,96882.47
2023-05-16T02:31:42.999Z,96862.97
2023-05-16T02:34:11.829Z,96907.00
2023-05-16T02:36:40.373Z,96906.69
2023-05-16T02:39:10.410Z,96908.22
2023-05-16T02:41:40.171Z,96728.03
2023-05-16T02:44:08.732Z,96877.97
2023-05-16T02:46:37.787Z,96870.78
2023-05-16T02:49:07.711Z,96809.00
2023-05-16T02:51:35.996Z,96903.03
2023-05-16T02:54:05.054Z,96635.75
2023-05-16T02:56:33.898Z,96707.25
2023-05-16T02:59:02.282Z,96914.47
2023-05-16T03:01:30.992Z,96882.09
2023-05-16T03:03:59.898Z,96878.50
2023-05-16T03:06:30.582Z,96869.13
2023-05-16T03:08:59.677Z,96919.59
2023-05-16T03:11:29.207Z,96862.31
2023-05-16T03:14:01.547Z,96869.97
2023-05-16T03:16:30.817Z,96913.09
2023-05-16T03:18:59.381Z,96923.63
2023-05-16T03:21:27.865Z,96710.00
2023-05-16T03:23:58.566Z,96769.25
2023-05-16T03:26:26.996Z,96908.59
2023-05-16T03:28:55.558Z,96930.63
2023-05-16T03:31:24.364Z,96948.84
2023-05-16T03:33:52.918Z,96787.38
2023-05-16T03:36:23.220Z,96957.75
2023-05-16T03:38:51.799Z,96847.50
2023-05-16T03:41:21.851Z,96845.09
2023-05-16T03:43:50.101Z,96904.16
2023-05-16T03:46:19.286Z,96927.41
2023-05-16T03:48:47.742Z,96884.91
2023-05-16T03:51:16.175Z,96798.34
2023-05-16T03:53:45.100Z,96690.03
2023-05-16T03:56:13.434Z,96804.50
2023-05-16T03:58:43.824Z,96820.47
2023-05-16T04:01:12.210Z,96924.47
2023-05-16T04:03:40.681Z,96918.41
2023-05-16T04:06:09.802Z,96882.56
2023-05-16T04:08:39.909Z,96928.63
2023-05-16T04:11:08.624Z,96921.22
2023-05-16T04:13:36.942Z,96922.47
2023-05-16T04:16:08.278Z,96851.69
2023-05-16T04:18:36.858Z,96776.34
2023-05-16T04:21:05.884Z,96900.75
2023-05-16T04:23:34.207Z,96890.09
2023-05-16T04:26:04.809Z,96923.31
2023-05-16T04:28:33.203Z,96934.69
2023-05-16T04:31:02.292Z,96832.59
2023-05-16T04:33:32.155Z,96914.09
2023-05-16T04:36:00.447Z,96948.94
2023-05-16T04:38:28.718Z,96884.72
2023-05-16T04:40:58.019Z,96942.09
2023-05-16T04:43:31.300Z,96954.66
2023-05-16T04:46:00.032Z,96894.53
2023-05-16T04:48:28.582Z,96889.53
2023-05-16T04:50:58.810Z,96807.63
2023-05-16T04:53:27.376Z,96970.28
2023-05-16T04:56:02.611Z,96961.69
2023-05-16T04:58:31.967Z,96966.56
2023-05-16T05:01:01.855Z,96930.16
2023-05-16T05:03:32.821Z,96777.47
2023-05-16T05:06:02.789Z,96960.06
2023-05-16T05:08:31.056Z,96870.22
2023-05-16T05:10:59.936Z,96926.97
2023-05-16T05:13:28.335Z,96924.56
2023-05-16T05:15:56.624Z,96962.88
2023-05-16T05:18:25.284Z,96959.56
2023-05-16T05:20:55.339Z,96873.16
2023-05-16T05:23:25.257Z,96947.91
2023-05-16T05:25:53.512Z,96830.59
2023-05-16T05:28:22.278Z,96943.13
2023-05-16T05:30:52.052Z,96933.47
2023-05-16T05:33:20.335Z,96942.22
2023-05-16T05:35:48.591Z,96797.97
2023-05-16T05:38:17.208Z,96870.53
2023-05-16T05:40:46.849Z,96918.06
2023-05-16T05:43:15.178Z,96851.38
2023-05-16T05:45:44.771Z,96899.41
2023-05-16T05:48:14.834Z,96944.06
2023-05-16T05:50:43.617Z,96946.06
2023-05-16T05:53:12.022Z,96896.53
2023-05-16T05:55:42.347Z,96899.03
2023-05-16T05:58:12.210Z,96929.69
2023-05-16T06:00:40.735Z,96847.25
2023-05-16T06:03:09.460Z,96889.19
2023-05-16T06:05:38.359Z,96926.63
2023-05-16T06:08:06.767Z,96926.84
2023-05-16T06:10:35.117Z,96538.25
2023-05-16T06:13:03.861Z,96879.25
2023-05-16T06:15:33.796Z,96869.75
2023-05-16T06:18:03.140Z,96951.94
2023-05-16T06:20:31.631Z,96856.25
2023-05-16T06:22:59.950Z,96942.72
2023-05-16T06:25:28.549Z,96874.50
2023-05-16T06:27:57.450Z,96968.38
2023-05-16T06:30:25.883Z,97016.25
2023-05-16T06:32:55.968Z,97001.59
2023-05-16T06:35:24.925Z,96925.22
2023-05-16T06:37:53.407Z,97014.94
2023-05-16T06:40:23.086Z,97062.84
2023-05-16T06:42:51.904Z,97025.88
2023-05-16T06:45:20.458Z,97067.78
2023-05-16T06:47:48.938Z,96917.75
2023-05-16T06:50:18.956Z,97060.13
2023-05-16T06:52:47.282Z,97067.84
2023-05-16T06:55:15.993Z,96985.19
2023-05-16T06:57:44.353Z,97050.44
2023-05-16T07:00:13.532Z,96931.75
2023-05-16T07:02:55.018Z,96972.25
2023-05-16T07:05:36.951Z,97043.66
2023-05-16T07:08:07.925Z,97033.06
2023-05-16T07:10:36.469Z,97027.84
2023-05-16T07:13:05.175Z,97081.00
2023-05-16T07:15:33.629Z,97022.34
2023-05-16T07:18:02.406Z,96918.19
2023-05-16T07:20:35.030Z,97012.56
2023-05-16T07:23:05.971Z,96962.81
2023-05-16T07:25:35.022Z,96966.13
2023-05-16T07:28:03.765Z,97017.88
2023-05-16T07:30:32.216Z,97006.16
2023-05-16T07:33:00.506Z,97001.59
2023-05-16T07:35:29.309Z,96718.28
2023-05-16T07:37:59.772Z,96988.06
2023-05-16T07:40:29.725Z,96962.94
2023-05-16T07:42:58.539Z,96967.34
2023-05-16T07:45:27.389Z,96945.50
2023-05-16T07:47:56.012Z,96940.19
2023-05-16T07:50:25.390Z,96914.47
2023-05-16T07:52:53.807Z,96968.66
2023-05-16T07:55:24.284Z,96936.09
2023-05-16T07:57:52.752Z,96907.66
2023-05-16T08:00:22.489Z,96986.25
2023-05-16T08:02:51.384Z,96985.34
2023-05-16T08:05:20.361Z,96976.38
2023-05-16T08:07:48.723Z,96947.81
2023-05-16T08:10:17.126Z,96976.34
2023-05-16T08:12:47.292Z,96709.72
2023-05-16T08:15:15.699Z,96977.84
2023-05-16T08:17:44.086Z,96929.94
2023-05-16T08:20:13.982Z,96876.47
2023-05-16T08:22:42.325Z,96907.78
2023-05-16T08:25:10.947Z,96819.50
2023-05-16T08:27:39.223Z,96958.56
2023-05-16T08:30:12.266Z,96978.09
2023-05-16T08:32:41.321Z,96957.28
2023-05-16T08:35:11.275Z,96623.44
2023-05-16T08:37:39.776Z,96972.69
2023-05-16T08:40:11.220Z,96960.59
2023-05-16T08:42:40.237Z,96880.75
2023-05-16T08:45:11.341Z,96890.38
2023-05-16T08:47:42.558Z,96908.75
2023-05-16T08:50:12.117Z,97016.22
2023-05-16T08:52:43.131Z,96666.84
2023-05-16T08:55:12.998Z,96908.69
2023-05-16T08:57:42.677Z,96927.47
2023-05-16T09:00:14.514Z,96898.16
2023-05-16T09:02:44.568Z,96936.34
2023-05-16T09:05:14.438Z,96932.09
2023-05-16T09:07:46.188Z,96988.13
2023-05-16T09:10:15.508Z,96938.13
2023-05-16T09:12:44.300Z,96856.59
2023-05-16T09:15:14.140Z,96901.81
2023-05-16T09:17:45.923Z,96947.16
2023-05-16T09:20:16.823Z,96969.88
2023-05-16T09:22:53.892Z,96810.03
2023-05-16T09:25:30.400Z,96981.59
2023-05-16T09:28:02.151Z,96947.97
2023-05-16T09:30:34.447Z,96885.72
2023-05-16T09:33:03.456Z,96912.41
2023-05-16T09:38:05.452Z,96837.25
2023-05-16T09:40:34.485Z,96870.91
2023-05-16T09:43:07.239Z,96994.72
2023-05-16T09:45:38.456Z,96788.06
2023-05-16T09:48:08.399Z,96900.84
2023-05-16T09:50:38.855Z,96958.09
2023-05-16T09:53:09.001Z,96792.41
2023-05-16T09:55:37.350Z,97016.78
2023-05-16T09:58:06.236Z,96878.59
2023-05-16T10:00:36.628Z,97004.69
2023-05-16T10:03:06.152Z,96973.47
2023-05-16T10:05:36.325Z,96973.06
2023-05-16T10:08:06.368Z,96945.78
2023-05-16T10:10:39.350Z,96943.66
2023-05-16T10:13:10.129Z,96887.19
2023-05-16T10:15:40.878Z,96985.16
2023-05-16T10:18:13.533Z,96889.81
2023-05-16T10:20:46.013Z,96976.72
2023-05-16T10:23:19.711Z,96936.09
2023-05-16T10:25:49.237Z,96859.31
2023-05-16T10:28:18.000Z,96958.69
2023-05-16T10:30:48.674Z,96958.06
2023-05-16T10:33:19.006Z,96961.59
2023-05-16T10:35:48.193Z,96931.78
2023-05-16T10:38:19.245Z,96903.97
2023-05-16T10:40:49.832Z,96908.06
2023-05-16T10:43:26.079Z,96893.50
2023-05-16T10:46:04.286Z,96906.38
2023-05-16T10:48:34.025Z,96915.06
2023-05-16T10:51:04.329Z,96926.56
2023-05-16T10:53:34.382Z,96914.63
2023-05-16T10:56:10.623Z,96686.59
2023-05-16T10:58:50.212Z,96876.94
2023-05-16T11:01:36.153Z,96829.44
2023-05-16T11:04:10.549Z,96888.59
2023-05-16T11:06:52.952Z,96866.84
2023-05-16T11:09:24.720Z,96855.56
2023-05-16T11:12:01.491Z,96871.03
2023-05-16T11:14:37.696Z,96880.38
2023-05-16T11:17:14.019Z,96878.47
2023-05-16T11:19:45.131Z,96878.47
2023-05-16T11:22:23.394Z,96840.41
2023-05-16T11:24:54.345Z,96820.66
2023-05-16T11:27:25.121Z,96866.63
2023-05-16T11:29:54.247Z,96581.16
2023-05-16T11:32:25.315Z,96837.28
2023-05-16T11:34:54.800Z,96868.78
2023-05-16T11:37:23.310Z,96848.34
2023-05-16T11:39:52.133Z,96886.59
2023-05-16T11:42:20.547Z,96878.44
2023-05-16T11:44:49.651Z,96843.09
2023-05-16T11:47:19.531Z,96864.75
2023-05-16T11:49:49.943Z,96863.59
2023-05-16T11:52:18.617Z,96762.97
2023-05-16T11:54:48.123Z,96809.38
2023-05-16T11:57:16.953Z,96795.84
2023-05-16T11:59:45.964Z,96739.88
2023-05-16T12:02:15.276Z,96839.47
2023-05-16T12:04:48.082Z,96840.97
2023-05-16T12:07:19.560Z,96845.94
2023-05-16T12:09:55.012Z,96808.38
2023-05-16T12:12:23.764Z,96765.69
2023-05-16T12:14:56.563Z,96775.28
2023-05-16T12:17:25.665Z,96831.72
2023-05-16T12:19:54.793Z,96746.34
2023-05-16T12:22:27.621Z,96829.66
2023-05-16T12:24:56.045Z,96852.53
2023-05-16T12:27:24.633Z,96710.66
2023-05-16T12:29:53.344Z,96771.63
2023-05-16T12:32:22.568Z,96610.69
2023-05-16T12:34:52.371Z,96687.47
2023-05-16T12:37:24.328Z,96806.81
2023-05-16T12:40:02.442Z,96765.47
2023-05-16T12:42:32.152Z,96683.34
2023-05-16T12:45:01.110Z,96752.59
2023-05-16T12:47:39.323Z,96789.97
2023-05-16T12:50:15.437Z,96811.88
2023-05-16T12:52:52.020Z,96783.47
2023-05-16T12:55:22.941Z,96757.16
2023-05-16T12:57:52.365Z,96794.63
2023-05-16T13:00:23.588Z,96753.16
2023-05-16T13:02:52.502Z,96697.19
2023-05-16T13:05:23.599Z,96516.31
2023-05-16T13:07:53.000Z,96721.13
2023-05-16T13:10:23.288Z,96741.13
2023-05-16T13:12:54.146Z,96776.72
2023-05-16T13:15:22.765Z,96729.69
2023-05-16T13:17:51.559Z,96769.06
2023-05-16T13:20:20.521Z,96704.34
2023-05-16T13:25:18.766Z,96689.06
2023-05-16T13:27:49.568Z,96763.81
2023-05-16T13:30:18.303Z,96791.75
2023-05-16T13:32:49.786Z,96710.50
2023-05-16T13:35:18.656Z,96705.38
2023-05-16T13:37:47.157Z,96677.28
2023-05-16T13:40:16.031Z,96744.94
2023-05-16T13:42:44.460Z,96649.19
2023-05-16T13:45:14.840Z,96735.16
2023-05-16T13:47:44.679Z,96714.53
2023-05-16T13:50:14.709Z,96695.56
2023-05-16T13:52:44.259Z,96731.66
2023-05-16T13:55:12.723Z,96741.47
2023-05-16T13:57:41.436Z,96642.25
2023-05-16T14:02:46.766Z,96694.44
2023-05-16T14:05:15.488Z,96378.97
2023-05-16T14:07:46.697Z,96533.19
2023-05-16T14:10:16.416Z,96708.25
2023-05-16T14:12:44.981Z,96714.72
2023-05-16T14:15:13.864Z,96526.03
2023-05-16T14:17:42.772Z,96686.84
2023-05-16T14:20:15.589Z,96609.22
2023-05-16T14:22:44.381Z,96654.97
2023-05-16T14:25:12.730Z,96685.38
2023-05-16T14:27:41.655Z,96493.69
2023-05-16T14:30:11.190Z,96702.22
2023-05-16T14:32:40.268Z,96609.44
2023-05-16T14:35:09.901Z,96700.25
2023-05-16T14:37:40.127Z,96412.44
2023-05-16T14:40:10.587Z,96119.72
2023-05-16T14:42:39.011Z,96714.16
2023-05-16T14:45:08.649Z,96646.84
2023-05-16T14:47:37.117Z,96611.28
2023-05-16T14:50:06.358Z,96555.84
2023-05-16T14:52:34.965Z,96746.31
2023-05-16T14:55:06.704Z,96707.31
2023-05-16T14:57:35.073Z,96602.31
2023-05-16T15:00:04.816Z,96702.38
2023-05-16T15:02:33.435Z,96774.06
2023-05-16T15:05:01.928Z,96729.53
2023-05-16T15:07:30.636Z,96721.03
2023-05-16T15:09:59.494Z,96771.69
2023-05-16T15:12:29.392Z,96685.44
2023-05-16T15:14:57.899Z,96737.91
2023-05-16T15:17:26.725Z,96638.13
2023-05-16T15:19:56.323Z,96626.31
2023-05-16T15:22:24.826Z,96776.25
2023-05-16T15:24:53.249Z,96670.75
2023-05-16T15:27:21.970Z,96703.16
2023-05-16T15:29:54.544Z,96604.75
2023-05-16T15:32:23.823Z,96777.31
2023-05-16T15:34:52.235Z,96643.88
2023-05-16T15:37:20.945Z,96720.81
2023-05-16T15:39:49.968Z,96779.13
2023-05-16T15:42:19.959Z,96778.28
2023-05-16T15:44:48.600Z,96771.97
2023-05-16T15:47:19.234Z,96772.75
2023-05-16T15:49:47.601Z,96731.22
2023-05-16T15:52:16.399Z,96706.63
2023-05-16T15:54:46.303Z,96692.16
2023-05-16T15:57:15.217Z,96771.13
2023-05-16T15:59:43.875Z,96790.47
2023-05-16T16:02:12.921Z,96736.91
2023-05-16T16:04:42.894Z,96704.28
2023-05-16T16:07:12.416Z,96716.19
2023-05-16T16:09:40.774Z,96606.38
2023-05-16T16:12:09.869Z,96778.34
2023-05-16T16:14:38.378Z,96638.19
2023-05-16T16:17:06.996Z,96783.41
2023-05-16T16:19:35.522Z,96682.16
2023-05-16T16:22:05.682Z,96678.63
2023-05-16T16:24:34.756Z,96697.63
2023-05-16T16:27:03.222Z,96751.63
2023-05-16T16:29:31.863Z,96713.31
2023-05-16T16:32:00.499Z,96758.50
2023-05-16T16:34:29.033Z,96750.63
2023-05-16T16:36:57.722Z,96720.50
2023-05-16T16:39:28.501Z,96655.75
2023-05-16T16:42:00.476Z,96761.66
2023-05-16T16:44:28.964Z,96763.81
2023-05-16T16:46:57.766Z,96764.53
2023-05-16T16:49:26.517Z,96686.06
2023-05-16T16:51:55.288Z,96773.88
2023-05-16T16:54:24.257Z,96758.28
2023-05-16T16:56:54.811Z,96754.94
2023-05-16T16:59:23.392Z,96709.19
2023-05-16T17:01:52.409Z,96671.13
2023-05-16T17:04:21.266Z,96773.56
2023-05-16T17:06:50.085Z,96755.44
2023-05-16T17:09:19.891Z,96676.44
2023-05-16T17:11:49.234Z,96736.75
2023-05-16T17:14:19.715Z,96690.97
2023-05-16T17:16:48.306Z,96706.13
2023-05-16T17:19:16.975Z,96780.66
2023-05-16T17:21:45.947Z,96794.69
2023-05-16T17:24:14.945Z,96757.63
2023-05-16T17:26:43.649Z,96710.75
2023-05-16T17:29:12.333Z,96790.91
2023-05-16T17:31:42.757Z,96798.88
2023-05-16T17:34:11.182Z,96725.25
2023-05-16T17:36:39.950Z,96703.06
2023-05-16T17:39:10.756Z,96766.00
2023-05-16T17:41:40.498Z,96633.09
2023-05-16T17:44:09.026Z,96826.34
2023-05-16T17:46:39.042Z,96812.13
2023-05-16T17:49:10.710Z,96807.91
2023-05-16T17:51:51.365Z,96828.13
2023-05-16T17:54:24.701Z,96832.31
2023-05-16T17:56:53.871Z,96792.53
2023-05-16T17:59:23.570Z,96837.94
2023-05-16T18:01:52.247Z,96823.25
2023-05-16T18:04:24.411Z,96732.25
2023-05-16T18:06:53.608Z,96751.63
2023-05-16T18:09:23.100Z,96635.50
2023-05-16T18:11:51.922Z,96833.03
2023-05-16T18:14:20.485Z,96833.09
2023-05-16T18:16:49.121Z,96815.78
2023-05-16T18:19:17.768Z,96824.75
2023-05-16T18:21:47.995Z,96784.72
2023-05-16T18:24:19.366Z,96817.75
2023-05-16T18:26:49.729Z,96736.44
2023-05-16T18:29:18.180Z,96814.75
2023-05-16T18:31:47.880Z,96808.03
2023-05-16T18:34:16.515Z,96814.16
2023-05-16T18:36:45.080Z,96811.25
2023-05-16T18:39:17.128Z,96823.97
2023-05-16T18:41:46.933Z,96824.69
2023-05-16T18:44:17.605Z,96831.75
2023-05-16T18:46:47.642Z,96838.00
2023-05-16T18:49:15.994Z,96834.31
2023-05-16T18:51:46.306Z,96847.56
2023-05-16T18:54:16.583Z,96838.03
2023-05-16T18:56:44.908Z,96836.88
2023-05-16T18:59:16.970Z,96845.53
2023-05-16T19:01:46.097Z,96840.72
2023-05-16T19:04:14.980Z,96852.00
2023-05-16T19:06:43.481Z,96848.72
2023-05-16T19:09:11.950Z,96851.47
2023-05-16T19:11:41.730Z,96860.25
2023-05-16T19:14:10.718Z,96852.13
2023-05-16T19:16:39.379Z,96856.78
2023-05-16T19:19:08.489Z,96857.69
2023-05-16T19:21:38.126Z,96859.03
2023-05-16T19:24:08.875Z,96847.97
2023-05-16T19:26:37.400Z,96808.75
2023-05-16T19:29:08.223Z,96819.47
2023-05-16T19:31:38.118Z,96833.94
2023-05-16T19:34:08.417Z,96829.56
2023-05-16T19:36:36.905Z,96820.06
2023-05-16T19:39:05.354Z,96827.13
2023-05-16T19:41:33.585Z,96836.63
2023-05-16T19:44:01.848Z,96836.63
2023-05-16T19:46:31.533Z,96835.97
2023-05-16T19:48:59.892Z,96825.47
2023-05-16T19:51:40.799Z,96811.66
2023-05-16T19:54:10.444Z,96840.16
2023-05-16T19:56:38.734Z,96851.59
2023-05-16T19:59:07.085Z,96837.84
2023-05-16T20:01:36.727Z,96851.00
2023-05-16T20:04:06.549Z,96847.59
2023-05-16T20:06:34.796Z,96850.28
2023-05-16T20:09:03.120Z,96830.53
2023-05-16T20:11:31.935Z,96844.41
2023-05-16T20:14:00.439Z,96847.22
2023-05-16T20:16:28.798Z,96849.78
2023-05-16T20:18:58.589Z,96854.09
2023-05-16T20:21:27.237Z,96853.44
2023-05-16T20:23:55.491Z,96853.63
2023-05-16T20:26:23.912Z,96822.81
2023-05-16T20:28:52.201Z,96862.28
2023-05-16T20:31:20.837Z,96853.53
2023-05-16T20:33:50.306Z,96857.91
2023-05-16T20:36:20.126Z,96868.47
2023-05-16T20:38:48.354Z,96853.00
2023-05-16T20:41:16.666Z,96861.91
2023-05-16T20:43:46.906Z,96860.16
2023-05-16T20:46:15.252Z,96801.91
2023-05-16T20:48:43.590Z,96848.06
2023-05-16T20:51:12.007Z,96858.44
2023-05-16T20:53:41.893Z,96839.19
2023-05-16T20:56:10.282Z,96843.53
2023-05-16T20:58:42.240Z,96840.06
2023-05-16T21:01:10.831Z,96855.59
2023-05-16T21:03:39.176Z,96843.34
2023-05-16T21:06:07.816Z,96836.34
2023-05-16T21:08:36.329Z,96840.28
2023-05-16T21:11:06.061Z,96848.63
2023-05-16T21:13:34.351Z,96858.84
2023-05-16T21:16:02.650Z,96859.78
2023-05-16T21:18:31.034Z,96855.19
2023-05-16T21:20:59.327Z,96851.41
2023-05-16T21:23:27.900Z,96870.47
2023-05-16T21:25:56.131Z,96844.00
2023-05-16T21:28:25.880Z,96867.03
2023-05-16T21:30:54.444Z,96860.75
2023-05-16T21:33:22.890Z,96875.56
2023-05-16T21:35:52.832Z,96898.69
2023-05-16T21:38:21.315Z,96889.88
2023-05-16T21:40:49.872Z,96899.44
2023-05-16T21:43:18.150Z,96902.72
2023-05-16T21:45:47.854Z,96896.19
2023-05-16T21:48:16.311Z,96890.78
2023-05-16T21:50:44.966Z,96891.66
2023-05-16T21:53:13.185Z,96905.50
2023-05-16T21:55:41.519Z,96908.03
2023-05-16T21:58:09.803Z,96901.97
2023-05-16T22:00:38.250Z,96904.41
2023-05-16T22:03:08.063Z,96913.97
2023-05-16T22:05:36.621Z,96906.91
2023-05-16T22:08:04.985Z,96905.94
2023-05-16T22:10:33.302Z,96907.72
2023-05-16T22:13:01.568Z,96907.81
2023-05-16T22:15:30.195Z,96907.28
2023-05-16T22:17:58.665Z,96911.53
2023-05-16T22:20:28.746Z,96921.97
2023-05-16T22:22:57.123Z,96923.75
2023-05-16T22:25:25.829Z,96922.88
2023-05-16T22:27:54.151Z,96929.69
2023-05-16T22:30:22.539Z,96927.88
2023-05-16T22:32:50.867Z,96927.00
2023-05-16T22:35:19.745Z,96924.13
2023-05-16T22:37:50.418Z,96926.75
2023-05-16T22:40:18.869Z,96923.22
2023-05-16T22:42:47.165Z,96879.03
2023-05-16T22:45:15.363Z,96917.97
2023-05-16T22:47:43.673Z,96900.94
2023-05-16T22:50:12.559Z,96913.06
2023-05-16T22:52:41.973Z,96915.09
2023-05-16T22:55:12.265Z,96914.00
2023-05-16T22:57:40.561Z,96909.66
2023-05-16T23:00:10.066Z,96910.31
2023-05-16T23:02:38.457Z,96894.16
2023-05-16T23:05:07.545Z,96900.09
2023-05-16T23:07:35.830Z,96903.25
2023-05-16T23:10:05.310Z,96907.69
2023-05-16T23:12:35.036Z,96827.59
2023-05-16T23:15:03.570Z,96899.66
2023-05-16T23:17:31.867Z,96903.91
2023-05-16T23:20:00.273Z,96898.56
2023-05-16T23:22:28.694Z,96877.41
2023-05-16T23:24:56.967Z,96883.19
2023-05-16T23:27:25.367Z,96906.28
2023-05-16T23:29:55.056Z,96902.09
2023-05-16T23:32:23.392Z,96902.69
2023-05-16T23:34:51.750Z,96893.00
2023-05-16T23:37:20.146Z,96889.91
2023-05-16T23:39:48.451Z,96896.53
2023-05-16T23:42:16.705Z,96895.44
2023-05-16T23:44:45.127Z,96899.16
2023-05-16T23:47:14.914Z,96906.28
2023-05-16T23:49:43.111Z,96899.47
2023-05-16T23:52:11.380Z,96902.81
2023-05-16T23:54:39.613Z,96902.81
2023-05-16T23:57:07.934Z,96899.34
2023-05-16T23:59:36.253Z,96898.13
